Time;durP1;ratioP1;P1;durP2;ratioP2;P2;SDS_P1;SDS_P2;PMS_P1;PMS_P2;Temp;Humidity;BMP_temperature;BMP_pressure;BME280_temperature;BME280_humidity;BME280_pressure;Samples;Min_cycle;Max_cycle;Signal;HPM_P1;HPM_P2
2023/08/03 00:01:04;;;;;;;5.60;1.58;;;;;;;;;;5076063;28;20213;-88
2023/08/03 00:03:33;;;;;;;11.32;1.55;;;;;;;;;;5075286;28;20733;-86
2023/08/03 00:06:00;;;;;;;5.55;1.40;;;;;;;;;;5075869;28;20209;-87
2023/08/03 00:08:27;;;;;;;7.22;1.70;;;;;;;;;;5074424;28;20233;-85
2023/08/03 00:10:54;;;;;;;2.42;1.17;;;;;;;;;;5075530;28;20205;-85
2023/08/03 00:13:21;;;;;;;4.95;1.70;;;;;;;;;;5075081;28;20233;-85
2023/08/03 00:15:48;;;;;;;2.33;1.05;;;;;;;;;;5075429;28;20255;-86
2023/08/03 00:18:15;;;;;;;4.75;1.70;;;;;;;;;;5074574;28;20225;-87
2023/08/03 00:20:45;;;;;;;3.80;1.55;;;;;;;;;;5074250;28;20209;-85
2023/08/03 00:23:12;;;;;;;4.97;1.40;;;;;;;;;;5063815;28;20284;-86
2023/08/03 00:25:39;;;;;;;6.68;1.35;;;;;;;;;;5055627;28;20684;-88
2023/08/03 00:28:06;;;;;;;3.28;1.35;;;;;;;;;;5064702;28;20236;-88
2023/08/03 00:30:33;;;;;;;5.70;1.63;;;;;;;;;;5061152;28;20202;-87
2023/08/03 00:33:00;;;;;;;5.35;1.30;;;;;;;;;;5054239;28;20241;-85
2023/08/03 00:35:27;;;;;;;5.22;1.65;;;;;;;;;;5055582;28;20205;-87
2023/08/03 00:37:56;;;;;;;4.75;1.63;;;;;;;;;;5055009;28;20252;-86
2023/08/03 00:40:23;;;;;;;11.10;1.63;;;;;;;;;;5055606;28;20230;-87
2023/08/03 00:42:50;;;;;;;4.82;1.73;;;;;;;;;;5071161;28;20233;-88
2023/08/03 00:45:17;;;;;;;5.18;1.48;;;;;;;;;;5055636;28;20209;-86
2023/08/03 00:47:44;;;;;;;4.65;1.77;;;;;;;;;;5054614;28;20249;-87
2023/08/03 00:50:11;;;;;;;7.75;1.67;;;;;;;;;;5055062;28;20236;-87
2023/08/03 00:52:39;;;;;;;2.17;1.45;;;;;;;;;;5054239;28;20238;-86
2023/08/03 00:55:08;;;;;;;4.72;1.67;;;;;;;;;;5055953;28;20206;-87
2023/08/03 00:57:35;;;;;;;3.40;1.40;;;;;;;;;;5062236;28;20235;-87
2023/08/03 01:00:02;;;;;;;3.17;1.10;;;;;;;;;;5062868;28;20229;-87
2023/08/03 01:02:29;;;;;;;3.03;1.30;;;;;;;;;;5072727;28;20233;-88
2023/08/03 01:04:57;;;;;;;6.15;1.70;;;;;;;;;;5064761;28;20202;-87
2023/08/03 01:07:24;;;;;;;4.60;1.52;;;;;;;;;;5057791;28;20229;-87
2023/08/03 01:09:52;;;;;;;3.65;1.90;;;;;;;;;;5073919;28;20225;-88
2023/08/03 01:12:20;;;;;;;2.55;1.05;;;;;;;;;;5073243;28;20241;-87
2023/08/03 01:14:47;;;;;;;3.00;1.38;;;;;;;;;;5059984;28;20630;-87
2023/08/03 01:17:14;;;;;;;6.93;1.73;;;;;;;;;;5053426;28;20237;-87
2023/08/03 01:19:42;;;;;;;3.40;1.33;;;;;;;;;;5053647;28;20229;-87
2023/08/03 01:22:11;;;;;;;3.47;1.27;;;;;;;;;;5061867;28;20232;-87
2023/08/03 01:24:39;;;;;;;6.35;1.45;;;;;;;;;;5073444;28;20601;-86
2023/08/03 01:27:07;;;;;;;6.05;1.70;;;;;;;;;;5073177;28;20233;-85
2023/08/03 01:29:34;;;;;;;5.30;1.23;;;;;;;;;;5060450;28;20225;-85
2023/08/03 01:32:01;;;;;;;2.88;1.17;;;;;;;;;;5060290;28;20319;-86
2023/08/03 01:34:28;;;;;;;2.10;0.98;;;;;;;;;;5074462;28;20197;-86
2023/08/03 01:36:56;;;;;;;4.75;1.20;;;;;;;;;;5072892;28;20232;-86
2023/08/03 01:39:24;;;;;;;4.22;1.50;;;;;;;;;;5073124;28;20255;-88
2023/08/03 01:41:53;;;;;;;4.43;1.30;;;;;;;;;;5061913;28;20233;-86
2023/08/03 01:44:21;;;;;;;4.72;1.40;;;;;;;;;;5072386;28;20198;-88
2023/08/03 01:46:48;;;;;;;3.33;1.00;;;;;;;;;;5072943;28;20294;-87
2023/08/03 01:49:15;;;;;;;3.20;1.13;;;;;;;;;;5073854;28;20240;-88
2023/08/03 01:51:42;;;;;;;5.65;0.93;;;;;;;;;;5072791;28;20236;-86
2023/08/03 01:54:10;;;;;;;3.33;1.02;;;;;;;;;;5073583;28;20205;-87
2023/08/03 01:56:37;;;;;;;2.95;1.40;;;;;;;;;;5072624;28;20212;-85
2023/08/03 01:59:06;;;;;;;2.35;1.23;;;;;;;;;;5072886;28;20725;-87
2023/08/03 02:01:33;;;;;;;3.00;1.10;;;;;;;;;;5072648;28;20212;-87
2023/08/03 02:04:00;;;;;;;5.78;1.52;;;;;;;;;;5073390;28;20687;-88
2023/08/03 02:06:27;;;;;;;2.05;0.98;;;;;;;;;;5072565;28;20197;-87
2023/08/03 02:08:54;;;;;;;3.00;1.23;;;;;;;;;;5053821;28;20230;-88
2023/08/03 02:11:21;;;;;;;2.88;1.25;;;;;;;;;;5053345;28;20206;-88
2023/08/03 02:13:48;;;;;;;2.63;1.65;;;;;;;;;;5057002;28;20221;-88
2023/08/03 02:16:17;;;;;;;1.95;1.08;;;;;;;;;;5065677;28;20194;-87
2023/08/03 02:18:44;;;;;;;3.78;1.23;;;;;;;;;;5052494;28;20222;-88
2023/08/03 02:21:11;;;;;;;5.43;1.42;;;;;;;;;;5068080;28;20204;-87
2023/08/03 02:23:38;;;;;;;5.15;1.15;;;;;;;;;;5060087;28;20240;-87
2023/08/03 02:26:05;;;;;;;3.10;1.20;;;;;;;;;;5078377;28;20201;-88
2023/08/03 02:28:33;;;;;;;1.85;0.80;;;;;;;;;;5074135;28;20721;-86
2023/08/03 02:31:00;;;;;;;3.70;1.42;;;;;;;;;;5073003;28;20208;-87
2023/08/03 02:33:28;;;;;;;4.30;1.02;;;;;;;;;;5067644;28;20703;-87
2023/08/03 02:35:55;;;;;;;2.00;1.17;;;;;;;;;;5052658;28;20206;-87
2023/08/03 02:38:22;;;;;;;2.78;1.30;;;;;;;;;;5052240;28;20241;-87
2023/08/03 02:40:49;;;;;;;2.92;1.10;;;;;;;;;;5067831;28;20212;-86
2023/08/03 02:43:16;;;;;;;5.10;2.60;;;;;;;;;;5053355;28;20230;-87
2023/08/03 02:45:44;;;;;;;2.75;1.52;;;;;;;;;;5054016;28;20210;-88
2023/08/03 02:48:11;;;;;;;3.88;1.42;;;;;;;;;;5051889;28;20226;-87
2023/08/03 02:50:39;;;;;;;4.15;0.90;;;;;;;;;;5052315;28;20213;-86
2023/08/03 02:53:06;;;;;;;6.15;1.75;;;;;;;;;;5055075;28;20234;-86
2023/08/03 02:55:33;;;;;;;4.80;1.27;;;;;;;;;;5059410;28;20589;-86
2023/08/03 02:58:00;;;;;;;1.52;1.08;;;;;;;;;;5058637;28;20240;-89
2023/08/03 03:00:27;;;;;;;4.40;1.15;;;;;;;;;;5072083;28;20198;-85
2023/08/03 03:02:54;;;;;;;1.35;0.80;;;;;;;;;;5077957;28;20315;-86
2023/08/03 03:05:21;;;;;;;2.30;1.00;;;;;;;;;;5075053;28;20201;-87
2023/08/03 03:07:50;;;;;;;3.40;0.95;;;;;;;;;;5078694;28;20233;-88
2023/08/03 03:10:17;;;;;;;4.30;1.40;;;;;;;;;;5078047;28;20232;-87
2023/08/03 03:12:44;;;;;;;4.18;1.35;;;;;;;;;;5076777;28;20335;-88
2023/08/03 03:15:11;;;;;;;2.15;1.08;;;;;;;;;;5074047;28;20209;-90
2023/08/03 03:17:42;;;;;;;2.75;1.25;;;;;;;;;;5071055;28;20235;-88
2023/08/03 03:20:09;;;;;;;2.25;1.23;;;;;;;;;;5078777;28;20224;-88
2023/08/03 03:22:36;;;;;;;3.50;1.23;;;;;;;;;;5078966;28;20235;-86
2023/08/03 03:25:05;;;;;;;2.60;1.00;;;;;;;;;;5065969;28;20691;-88
2023/08/03 03:27:32;;;;;;;2.95;1.13;;;;;;;;;;5078810;28;20264;-90
2023/08/03 03:29:59;;;;;;;2.05;1.08;;;;;;;;;;5079107;28;20232;-89
2023/08/03 03:32:26;;;;;;;2.40;0.98;;;;;;;;;;5078531;28;20247;-86
2023/08/03 03:34:53;;;;;;;1.67;0.73;;;;;;;;;;5078930;28;20204;-88
2023/08/03 03:37:20;;;;;;;2.17;0.90;;;;;;;;;;5078734;28;20233;-88
2023/08/03 03:39:47;;;;;;;3.47;1.27;;;;;;;;;;5079032;28;20230;-86
2023/08/03 03:42:16;;;;;;;4.55;0.93;;;;;;;;;;5078446;28;20237;-89
2023/08/03 03:44:43;;;;;;;4.45;0.85;;;;;;;;;;5067894;28;20202;-88
2023/08/03 03:47:10;;;;;;;1.80;0.95;;;;;;;;;;5076601;28;20232;-88
2023/08/03 03:49:37;;;;;;;3.42;1.10;;;;;;;;;;5077313;28;20221;-80
2023/08/03 03:52:04;;;;;;;0.98;0.75;;;;;;;;;;5077333;28;20237;-81
2023/08/03 03:54:31;;;;;;;2.72;0.98;;;;;;;;;;5066970;28;20201;-81
2023/08/03 03:57:00;;;;;;;3.08;1.05;;;;;;;;;;5057491;28;20232;-79
2023/08/03 03:59:28;;;;;;;1.55;0.88;;;;;;;;;;5057602;28;20214;-80
2023/08/03 04:01:55;;;;;;;2.83;1.27;;;;;;;;;;5068783;28;20253;-79
2023/08/03 04:04:23;;;;;;;3.65;1.00;;;;;;;;;;5062525;28;20662;-81
2023/08/03 04:06:50;;;;;;;2.13;1.00;;;;;;;;;;5067922;28;20229;-81
2023/08/03 04:09:17;;;;;;;2.15;0.82;;;;;;;;;;5065525;28;20252;-81
2023/08/03 04:11:44;;;;;;;3.63;1.08;;;;;;;;;;5068160;28;20229;-81
2023/08/03 04:14:11;;;;;;;0.98;0.70;;;;;;;;;;5062692;28;20595;-81
2023/08/03 04:16:39;;;;;;;3.40;1.13;;;;;;;;;;5074066;28;20586;-81
2023/08/03 04:19:06;;;;;;;2.67;1.08;;;;;;;;;;5073695;28;20222;-81
2023/08/03 04:21:33;;;;;;;4.15;0.90;;;;;;;;;;5072721;28;20201;-81
2023/08/03 04:24:00;;;;;;;3.03;0.93;;;;;;;;;;5074163;28;20214;-79
2023/08/03 04:26:27;;;;;;;2.85;0.93;;;;;;;;;;5073080;28;20201;-81
2023/08/03 04:28:54;;;;;;;12.88;1.70;;;;;;;;;;5073834;28;20225;-82
2023/08/03 04:31:21;;;;;;;3.05;0.93;;;;;;;;;;5073254;28;20212;-82
2023/08/03 04:33:51;;;;;;;2.85;1.02;;;;;;;;;;5073447;28;20679;-81
2023/08/03 04:36:18;;;;;;;3.03;1.15;;;;;;;;;;5073811;28;20209;-81
2023/08/03 04:38:45;;;;;;;2.92;1.00;;;;;;;;;;5073070;28;20225;-81
2023/08/03 04:41:14;;;;;;;1.48;0.73;;;;;;;;;;5072916;28;20201;-81
2023/08/03 04:43:42;;;;;;;3.58;1.00;;;;;;;;;;5060613;28;20308;-82
2023/08/03 04:46:09;;;;;;;3.13;1.17;;;;;;;;;;5073855;28;20292;-82
2023/08/03 04:48:36;;;;;;;4.03;1.20;;;;;;;;;;5072557;28;20233;-81
2023/08/03 04:51:04;;;;;;;2.30;1.02;;;;;;;;;;5073425;28;20312;-80
2023/08/03 04:53:31;;;;;;;3.60;1.13;;;;;;;;;;5072785;28;20233;-81
2023/08/03 04:55:58;;;;;;;0.80;0.65;;;;;;;;;;5073484;28;20216;-79
2023/08/03 04:58:25;;;;;;;2.45;1.10;;;;;;;;;;5072674;28;20662;-80
2023/08/03 05:00:52;;;;;;;4.72;1.45;;;;;;;;;;5072828;28;20201;-82
2023/08/03 05:03:19;;;;;;;2.93;1.23;;;;;;;;;;5072481;28;20237;-81
2023/08/03 05:05:46;;;;;;;3.00;1.25;;;;;;;;;;5072877;28;20201;-80
2023/08/03 05:08:15;;;;;;;3.65;1.02;;;;;;;;;;5072535;28;20237;-81
2023/08/03 05:10:42;;;;;;;2.72;1.00;;;;;;;;;;5070806;28;20249;-81
2023/08/03 05:13:09;;;;;;;3.88;1.30;;;;;;;;;;5063920;28;20230;-81
2023/08/03 05:15:36;;;;;;;6.30;1.63;;;;;;;;;;5068092;28;20205;-81
2023/08/03 05:18:04;;;;;;;3.25;1.48;;;;;;;;;;5068772;28;20737;-82
2023/08/03 05:20:31;;;;;;;1.92;1.13;;;;;;;;;;5072028;28;20201;-81
2023/08/03 05:22:58;;;;;;;2.53;0.95;;;;;;;;;;5072191;28;20722;-81
2023/08/03 05:25:27;;;;;;;2.97;1.30;;;;;;;;;;5072663;28;20236;-80
2023/08/03 05:27:54;;;;;;;4.32;1.27;;;;;;;;;;5072025;28;20233;-79
2023/08/03 05:30:21;;;;;;;3.70;0.93;;;;;;;;;;5072361;28;20229;-80
2023/08/03 05:32:48;;;;;;;4.50;1.58;;;;;;;;;;5071618;28;20233;-79
2023/08/03 05:35:16;;;;;;;0.98;0.88;;;;;;;;;;5072058;28;20212;-80
2023/08/03 05:37:43;;;;;;;3.08;0.98;;;;;;;;;;5072029;28;20267;-81
2023/08/03 05:40:11;;;;;;;2.20;1.10;;;;;;;;;;5072607;28;20232;-81
2023/08/03 05:42:41;;;;;;;1.58;0.77;;;;;;;;;;5071747;28;20246;-80
2023/08/03 05:45:13;;;;;;;2.63;1.10;;;;;;;;;;5072522;28;20228;-80
2023/08/03 05:47:40;;;;;;;3.85;1.45;;;;;;;;;;5072053;28;20590;-80
2023/08/03 05:50:13;;;;;;;3.53;1.20;;;;;;;;;;5072358;28;20225;-79
2023/08/03 05:52:40;;;;;;;1.43;1.10;;;;;;;;;;5071584;28;20779;-79
2023/08/03 05:55:10;;;;;;;3.13;1.17;;;;;;;;;;5072416;28;20205;-79
2023/08/03 05:57:37;;;;;;;1.05;0.95;;;;;;;;;;5071902;28;20237;-80
2023/08/03 06:00:13;;;;;;;4.17;1.20;;;;;;;;;;5072491;28;20220;-80
2023/08/03 06:02:40;;;;;;;2.22;0.98;;;;;;;;;;5072065;28;20311;-79
2023/08/03 06:05:08;;;;;;;3.13;1.45;;;;;;;;;;5072378;28;20201;-80
2023/08/03 06:07:35;;;;;;;2.03;1.02;;;;;;;;;;5071782;28;20228;-80
2023/08/03 06:10:02;;;;;;;3.50;1.30;;;;;;;;;;5074314;28;20237;-81
2023/08/03 06:12:29;;;;;;;2.10;0.98;;;;;;;;;;5071635;28;20580;-80
2023/08/03 06:14:56;;;;;;;2.67;1.02;;;;;;;;;;5068003;28;20206;-80
2023/08/03 06:17:24;;;;;;;1.23;0.80;;;;;;;;;;5065503;28;20221;-80
2023/08/03 06:19:51;;;;;;;2.17;1.13;;;;;;;;;;5058705;28;20244;-81
2023/08/03 06:22:20;;;;;;;2.63;0.90;;;;;;;;;;5062321;28;20225;-79
2023/08/03 06:24:48;;;;;;;1.08;0.98;;;;;;;;;;5064195;28;20687;-81
2023/08/03 06:27:15;;;;;;;3.10;1.33;;;;;;;;;;5080591;28;20225;-81
2023/08/03 06:29:42;;;;;;;3.57;1.23;;;;;;;;;;5079127;28;20243;-81
2023/08/03 06:32:14;;;;;;;4.82;1.98;;;;;;;;;;5075789;28;20247;-80
2023/08/03 06:34:43;;;;;;;3.55;1.73;;;;;;;;;;5079172;28;20215;-80
2023/08/03 06:37:10;;;;;;;3.08;1.30;;;;;;;;;;5088469;28;20231;-81
2023/08/03 06:39:37;;;;;;;3.00;1.77;;;;;;;;;;5090241;28;20243;-80
2023/08/03 06:42:04;;;;;;;3.45;1.35;;;;;;;;;;5089473;28;20315;-81
2023/08/03 06:44:34;;;;;;;2.13;1.00;;;;;;;;;;5090142;28;20259;-81
2023/08/03 06:47:02;;;;;;;2.80;1.30;;;;;;;;;;5061583;28;20233;-81
2023/08/03 06:49:29;;;;;;;4.97;1.60;;;;;;;;;;5069444;28;20653;-81
2023/08/03 06:51:57;;;;;;;1.92;0.93;;;;;;;;;;5080565;28;20235;-81
2023/08/03 06:54:24;;;;;;;1.98;0.93;;;;;;;;;;5089943;28;20408;-81
2023/08/03 06:56:51;;;;;;;4.32;1.08;;;;;;;;;;5088145;28;20608;-81
2023/08/03 06:59:21;;;;;;;1.83;1.02;;;;;;;;;;5069666;28;20396;-82
2023/08/03 07:01:49;;;;;;;1.67;1.25;;;;;;;;;;5063553;28;20240;-80
2023/08/03 07:04:16;;;;;;;3.67;1.60;;;;;;;;;;5069186;28;20259;-81
2023/08/03 07:06:44;;;;;;;1.23;1.10;;;;;;;;;;5068349;28;20256;-80
2023/08/03 07:09:12;;;;;;;2.73;0.97;;;;;;;;;;5069203;28;20235;-81
2023/08/03 07:11:39;;;;;;;4.68;1.40;;;;;;;;;;5086509;28;20586;-80
2023/08/03 07:14:08;;;;;;;2.90;1.15;;;;;;;;;;5086073;28;20581;-80
2023/08/03 07:16:36;;;;;;;2.10;0.98;;;;;;;;;;5068812;28;20213;-81
2023/08/03 07:19:06;;;;;;;5.22;1.70;;;;;;;;;;5063921;28;20714;-81
2023/08/03 07:21:33;;;;;;;2.70;1.33;;;;;;;;;;5081339;28;20197;-81
2023/08/03 07:24:00;;;;;;;3.90;1.27;;;;;;;;;;5074172;28;20290;-79
2023/08/03 07:26:28;;;;;;;3.13;1.20;;;;;;;;;;5082467;28;20219;-80
2023/08/03 07:28:55;;;;;;;2.75;1.08;;;;;;;;;;5080957;28;20904;-79
2023/08/03 07:31:24;;;;;;;2.50;1.17;;;;;;;;;;5083782;28;20221;-78
2023/08/03 07:33:51;;;;;;;7.93;3.22;;;;;;;;;;5081092;28;20209;-81
2023/08/03 07:36:18;;;;;;;4.55;1.27;;;;;;;;;;5082453;28;20283;-79
2023/08/03 07:38:45;;;;;;;2.88;1.27;;;;;;;;;;5082847;28;20311;-80
2023/08/03 07:41:12;;;;;;;2.85;1.05;;;;;;;;;;5086543;28;20257;-80
2023/08/03 07:43:41;;;;;;;3.92;1.45;;;;;;;;;;5077308;28;20225;-78
2023/08/03 07:46:08;;;;;;;4.38;1.50;;;;;;;;;;5089932;28;20209;-79
2023/08/03 07:48:35;;;;;;;3.88;1.42;;;;;;;;;;5081578;28;20232;-80
2023/08/03 07:51:11;;;;;;;2.03;1.08;;;;;;;;;;5077893;28;20220;-80
2023/08/03 07:53:38;;;;;;;3.05;1.15;;;;;;;;;;5085642;28;20232;-80
2023/08/03 07:56:05;;;;;;;3.47;1.52;;;;;;;;;;5066804;28;20209;-80
2023/08/03 07:58:32;;;;;;;6.95;1.63;;;;;;;;;;5072933;28;20231;-79
2023/08/03 08:01:07;;;;;;;4.60;1.38;;;;;;;;;;5073853;28;20232;-80
2023/08/03 08:03:34;;;;;;;2.03;0.98;;;;;;;;;;5089068;28;20232;-79
2023/08/03 08:06:05;;;;;;;4.28;1.45;;;;;;;;;;5093136;28;20201;-79
2023/08/03 08:08:32;;;;;;;4.55;1.35;;;;;;;;;;5077442;28;20291;-79
2023/08/03 08:11:00;;;;;;;1.98;1.25;;;;;;;;;;5073026;28;20229;-77
2023/08/03 08:13:27;;;;;;;1.50;0.90;;;;;;;;;;5072914;28;20240;-79
2023/08/03 08:15:58;;;;;;;2.28;1.33;;;;;;;;;;5090375;28;20212;-79
2023/08/03 08:18:26;;;;;;;1.35;0.88;;;;;;;;;;5071812;28;20247;-81
2023/08/03 08:20:55;;;;;;;1.88;1.02;;;;;;;;;;5072455;28;20717;-80
2023/08/03 08:23:22;;;;;;;2.90;1.30;;;;;;;;;;5072579;28;20587;-80
2023/08/03 08:25:50;;;;;;;1.75;1.02;;;;;;;;;;5072920;28;20445;-81
2023/08/03 08:28:17;;;;;;;2.08;0.82;;;;;;;;;;5071511;28;20229;-80
2023/08/03 08:30:45;;;;;;;1.58;1.38;;;;;;;;;;5072544;28;20229;-81
2023/08/03 08:33:12;;;;;;;2.53;1.05;;;;;;;;;;5071684;28;20279;-80
2023/08/03 08:35:40;;;;;;;3.08;1.02;;;;;;;;;;5069313;28;20209;-80
2023/08/03 08:38:11;;;;;;;2.97;1.20;;;;;;;;;;5071888;28;20659;-80
2023/08/03 08:40:38;;;;;;;2.58;1.48;;;;;;;;;;5077735;28;20209;-79
2023/08/03 08:43:05;;;;;;;1.00;0.80;;;;;;;;;;5072171;28;20706;-81
2023/08/03 08:45:32;;;;;;;3.00;1.27;;;;;;;;;;5069546;28;20671;-80
2023/08/03 08:47:59;;;;;;;2.42;1.08;;;;;;;;;;5070755;28;20229;-80
2023/08/03 08:50:26;;;;;;;2.80;1.13;;;;;;;;;;5071541;28;20222;-80
2023/08/03 08:52:55;;;;;;;1.58;1.13;;;;;;;;;;5070031;28;20229;-80
2023/08/03 08:55:23;;;;;;;6.45;1.50;;;;;;;;;;5076856;28;20292;-80
2023/08/03 08:57:51;;;;;;;1.20;1.05;;;;;;;;;;5072486;28;20314;-81
2023/08/03 09:00:18;;;;;;;3.25;1.45;;;;;;;;;;5071385;28;20596;-81
2023/08/03 09:02:45;;;;;;;2.60;1.00;;;;;;;;;;5071338;28;20279;-81
2023/08/03 09:05:14;;;;;;;3.75;1.13;;;;;;;;;;5076387;28;20205;-80
2023/08/03 09:07:41;;;;;;;2.33;1.25;;;;;;;;;;5081417;28;20719;-81
2023/08/03 09:10:10;;;;;;;2.45;1.10;;;;;;;;;;5071996;28;20718;-82
2023/08/03 09:12:38;;;;;;;2.55;0.93;;;;;;;;;;5071625;28;20240;-82
2023/08/03 09:15:06;;;;;;;2.97;1.00;;;;;;;;;;5072278;28;20197;-81
2023/08/03 09:17:33;;;;;;;2.40;1.38;;;;;;;;;;5071867;28;20282;-81
2023/08/03 09:20:00;;;;;;;2.38;1.08;;;;;;;;;;5074183;28;20716;-80
2023/08/03 09:22:28;;;;;;;3.65;1.55;;;;;;;;;;5077091;28;20228;-81
2023/08/03 09:25:00;;;;;;;2.33;1.13;;;;;;;;;;5077634;28;20205;-82
2023/08/03 09:27:29;;;;;;;1.00;0.88;;;;;;;;;;5077743;28;20239;-81
2023/08/03 09:30:00;;;;;;;3.35;0.98;;;;;;;;;;5090183;28;20221;-81
2023/08/03 09:32:31;;;;;;;1.23;0.75;;;;;;;;;;5065678;28;20229;-81
2023/08/03 09:34:59;;;;;;;1.33;0.82;;;;;;;;;;5071704;28;20213;-81
2023/08/03 09:37:33;;;;;;;1.75;1.02;;;;;;;;;;5076659;28;20229;-81
2023/08/03 09:40:03;;;;;;;0.93;0.80;;;;;;;;;;5080483;28;20259;-80
2023/08/03 09:42:32;;;;;;;3.58;1.00;;;;;;;;;;5069755;28;20229;-80
2023/08/03 09:45:01;;;;;;;2.33;1.50;;;;;;;;;;5079268;28;20243;-80
2023/08/03 09:47:28;;;;;;;1.67;0.98;;;;;;;;;;5083655;28;20228;-81
2023/08/03 09:49:56;;;;;;;4.05;1.00;;;;;;;;;;5084726;22;20240;-87
2023/08/03 09:52:24;;;;;;;0.70;0.55;;;;;;;;;;5061922;28;20315;-85
2023/08/03 09:54:55;;;;;;;1.92;0.85;;;;;;;;;;5062994;28;20213;-87
2023/08/03 09:57:24;;;;;;;1.75;1.20;;;;;;;;;;5073880;28;20264;-86
2023/08/03 09:59:54;;;;;;;1.75;0.88;;;;;;;;;;5054932;28;20231;-89
2023/08/03 10:02:24;;;;;;;1.40;0.85;;;;;;;;;;5035143;28;20522;-90
2023/08/03 10:04:53;;;;;;;4.97;1.67;;;;;;;;;;5044692;28;20753;-89
2023/08/03 10:07:21;;;;;;;2.65;0.95;;;;;;;;;;5033967;28;20229;-88
2023/08/03 10:09:50;;;;;;;0.90;0.90;;;;;;;;;;5042588;28;20227;-89
2023/08/03 10:12:18;;;;;;;1.02;0.80;;;;;;;;;;5033258;28;20227;-87
2023/08/03 10:14:46;;;;;;;0.65;0.63;;;;;;;;;;5050076;28;20207;-87
2023/08/03 10:17:15;;;;;;;2.15;1.10;;;;;;;;;;5032615;28;20234;-86
2023/08/03 10:19:43;;;;;;;1.52;0.85;;;;;;;;;;5040658;28;20234;-88
2023/08/03 10:22:10;;;;;;;2.53;0.90;;;;;;;;;;5047235;28;20237;-88
2023/08/03 10:24:37;;;;;;;1.45;0.90;;;;;;;;;;5045457;28;20504;-89
2023/08/03 10:27:18;;;;;;;2.75;1.10;;;;;;;;;;5035779;28;20234;-89
2023/08/03 10:29:54;;;;;;;2.10;1.08;;;;;;;;;;5037480;28;20230;-88
2023/08/03 10:32:23;;;;;;;1.02;0.90;;;;;;;;;;5046222;28;20229;-88
2023/08/03 10:34:52;;;;;;;0.35;0.35;;;;;;;;;;5045318;28;20216;-87
2023/08/03 10:37:20;;;;;;;1.58;0.80;;;;;;;;;;5040603;28;20258;-88
2023/08/03 10:39:50;;;;;;;1.27;1.20;;;;;;;;;;5033907;28;20226;-87
2023/08/03 10:42:21;;;;;;;1.85;0.80;;;;;;;;;;5046205;28;20226;-86
2023/08/03 10:44:48;;;;;;;4.80;1.08;;;;;;;;;;5053737;28;20201;-88
2023/08/03 10:47:24;;;;;;;0.80;0.80;;;;;;;;;;5034107;28;20223;-87
2023/08/03 10:49:52;;;;;;;1.23;0.80;;;;;;;;;;5042950;28;20221;-89
2023/08/03 10:52:24;;;;;;;1.40;0.85;;;;;;;;;;5045651;28;20226;-86
2023/08/03 10:54:51;;;;;;;1.77;1.00;;;;;;;;;;5057087;28;20198;-86
2023/08/03 10:57:19;;;;;;;1.63;0.98;;;;;;;;;;5045742;28;20233;-85
2023/08/03 10:59:47;;;;;;;0.82;0.60;;;;;;;;;;5044558;28;20226;-81
2023/08/03 11:02:15;;;;;;;2.97;1.08;;;;;;;;;;5037271;28;20230;-81
2023/08/03 11:04:45;;;;;;;2.67;1.50;;;;;;;;;;5044595;28;20213;-82
2023/08/03 11:07:12;;;;;;;1.55;0.93;;;;;;;;;;5042318;28;20231;-83
2023/08/03 11:09:39;;;;;;;2.67;0.82;;;;;;;;;;5042558;28;20778;-83
2023/08/03 11:12:07;;;;;;;2.08;1.08;;;;;;;;;;5043565;28;20245;-82
2023/08/03 11:14:36;;;;;;;2.95;1.23;;;;;;;;;;5057422;28;20261;-86
2023/08/03 11:17:03;;;;;;;2.85;1.02;;;;;;;;;;5055909;28;20229;-85
2023/08/03 11:19:33;;;;;;;2.70;1.23;;;;;;;;;;5061596;28;20222;-88
2023/08/03 11:22:02;;;;;;;1.95;0.80;;;;;;;;;;5060767;28;20360;-89
2023/08/03 11:24:31;;;;;;;1.83;0.90;;;;;;;;;;5064446;28;20202;-88
2023/08/03 11:26:58;;;;;;;1.85;0.90;;;;;;;;;;5041588;28;20237;-87
2023/08/03 11:29:25;;;;;;;1.95;0.88;;;;;;;;;;5053222;28;20234;-88
2023/08/03 11:31:53;;;;;;;1.20;1.08;;;;;;;;;;5037702;28;20241;-90
2023/08/03 11:34:20;;;;;;;1.17;0.60;;;;;;;;;;5054305;28;20211;-89
2023/08/03 11:36:51;;;;;;;2.47;1.17;;;;;;;;;;5045738;28;20246;-88
2023/08/03 11:39:19;;;;;;;1.85;0.73;;;;;;;;;;5049684;28;20226;-87
2023/08/03 11:41:47;;;;;;;2.10;0.80;;;;;;;;;;5065341;28;20235;-89
2023/08/03 11:44:15;;;;;;;1.15;0.75;;;;;;;;;;5050077;28;20427;-89
2023/08/03 11:46:42;;;;;;;1.95;0.68;;;;;;;;;;5042569;28;20605;-90
2023/08/03 11:49:13;;;;;;;1.58;0.47;;;;;;;;;;5053366;28;20233;-87
2023/08/03 11:51:41;;;;;;;1.58;0.80;;;;;;;;;;5057265;28;20242;-88
2023/08/03 11:54:09;;;;;;;1.08;0.57;;;;;;;;;;5056272;28;20634;-88
2023/08/03 11:56:38;;;;;;;1.67;0.30;;;;;;;;;;5057252;28;20198;-89
2023/08/03 11:59:04;;;;;;;0.73;0.50;;;;;;;;;;5047441;28;20216;-88
2023/08/03 12:01:31;;;;;;;0.57;0.50;;;;;;;;;;5042549;28;20229;-88
2023/08/03 12:04:06;;;;;;;0.47;0.47;;;;;;;;;;5048139;28;20210;-89
2023/08/03 12:06:49;;;;;;;1.40;0.65;;;;;;;;;;5036952;28;20210;-85
2023/08/03 12:09:20;;;;;;;0.50;0.50;;;;;;;;;;5049112;28;20229;-87
2023/08/03 12:11:49;;;;;;;1.83;0.70;;;;;;;;;;5048714;28;20247;-88
2023/08/03 12:14:17;;;;;;;0.47;0.47;;;;;;;;;;5048709;28;20220;-88
2023/08/03 12:16:44;;;;;;;1.15;0.60;;;;;;;;;;5041790;28;20985;-87
2023/08/03 12:19:11;;;;;;;3.33;0.68;;;;;;;;;;5044146;28;20318;-84
2023/08/03 12:21:38;;;;;;;0.40;0.40;;;;;;;;;;5041583;28;20300;-85
2023/08/03 12:24:06;;;;;;;0.70;0.43;;;;;;;;;;5050593;28;20222;-86
2023/08/03 12:26:33;;;;;;;0.85;0.60;;;;;;;;;;5040984;28;20218;-87
2023/08/03 12:29:03;;;;;;;0.52;0.40;;;;;;;;;;5048557;28;20233;-86
2023/08/03 12:31:31;;;;;;;2.42;0.50;;;;;;;;;;5051461;28;20624;-88
2023/08/03 12:33:58;;;;;;;0.88;0.40;;;;;;;;;;5052145;28;20205;-88
2023/08/03 12:36:26;;;;;;;0.60;0.60;;;;;;;;;;5059225;28;20214;-87
2023/08/03 12:38:53;;;;;;;1.02;0.60;;;;;;;;;;5037131;28;20313;-86
2023/08/03 12:41:20;;;;;;;0.40;0.40;;;;;;;;;;5051265;28;20728;-86
2023/08/03 12:43:47;;;;;;;0.35;0.30;;;;;;;;;;5052508;28;20203;-88
2023/08/03 12:46:16;;;;;;;0.50;0.50;;;;;;;;;;5056386;28;20731;-88
2023/08/03 12:48:43;;;;;;;0.40;0.40;;;;;;;;;;5046657;28;20233;-87
2023/08/03 12:51:10;;;;;;;0.50;0.40;;;;;;;;;;5055031;28;20217;-87
2023/08/03 12:53:38;;;;;;;1.02;0.60;;;;;;;;;;5055715;28;20234;-85
2023/08/03 12:56:05;;;;;;;0.50;0.47;;;;;;;;;;5056180;28;20202;-86
2023/08/03 12:58:32;;;;;;;0.40;0.40;;;;;;;;;;5047643;28;20230;-87
2023/08/03 13:00:59;;;;;;;0.40;0.40;;;;;;;;;;5040090;28;20230;-87
2023/08/03 13:03:28;;;;;;;0.40;0.40;;;;;;;;;;5047404;28;20304;-86
2023/08/03 13:05:55;;;;;;;0.68;0.50;;;;;;;;;;5048082;28;20211;-85
2023/08/03 13:08:22;;;;;;;1.45;0.43;;;;;;;;;;5035824;28;20230;-86
2023/08/03 13:10:50;;;;;;;0.57;0.50;;;;;;;;;;5043886;28;20226;-88
2023/08/03 13:13:18;;;;;;;0.63;0.50;;;;;;;;;;5044261;28;20230;-88
2023/08/03 13:15:45;;;;;;;0.40;0.40;;;;;;;;;;5044449;28;20222;-86
2023/08/03 13:18:13;;;;;;;0.70;0.50;;;;;;;;;;5035380;28;20241;-87
2023/08/03 13:20:41;;;;;;;0.30;0.28;;;;;;;;;;5048240;28;20707;-82
2023/08/03 13:23:09;;;;;;;0.22;0.22;;;;;;;;;;5048607;28;20237;-84
2023/08/03 13:25:36;;;;;;;1.75;0.63;;;;;;;;;;5054766;28;20202;-85
2023/08/03 13:28:05;;;;;;;0.40;0.40;;;;;;;;;;5037883;28;20239;-85
2023/08/03 13:30:32;;;;;;;0.77;0.43;;;;;;;;;;5053674;28;20286;-87
2023/08/03 13:32:59;;;;;;;0.82;0.38;;;;;;;;;;5066166;28;20237;-85
2023/08/03 13:35:26;;;;;;;0.50;0.32;;;;;;;;;;5045592;28;20215;-90
2023/08/03 13:37:54;;;;;;;1.52;0.60;;;;;;;;;;5042477;28;20723;-86
2023/08/03 13:40:21;;;;;;;0.75;0.40;;;;;;;;;;5054825;28;20607;-87
2023/08/03 13:42:48;;;;;;;0.45;0.40;;;;;;;;;;5046032;28;20254;-87
2023/08/03 13:45:15;;;;;;;0.30;0.30;;;;;;;;;;5050274;28;20225;-86
2023/08/03 13:47:43;;;;;;;0.47;0.40;;;;;;;;;;5063063;28;20238;-86
2023/08/03 13:50:10;;;;;;;0.60;0.60;;;;;;;;;;5064506;28;20225;-85
2023/08/03 13:52:37;;;;;;;0.77;0.30;;;;;;;;;;5061229;28;20257;-89
2023/08/03 13:55:07;;;;;;;0.75;0.75;;;;;;;;;;5056556;28;20233;-88
2023/08/03 13:57:34;;;;;;;0.40;0.40;;;;;;;;;;5034737;28;20226;-90
2023/08/03 14:00:03;;;;;;;0.50;0.50;;;;;;;;;;5052437;28;20581;-89
2023/08/03 14:02:30;;;;;;;0.43;0.43;;;;;;;;;;5053271;28;20233;-87
2023/08/03 14:04:57;;;;;;;0.50;0.40;;;;;;;;;;5053050;28;20206;-87
2023/08/03 14:07:24;;;;;;;0.75;0.40;;;;;;;;;;5054092;28;20230;-88
2023/08/03 14:09:51;;;;;;;0.40;0.40;;;;;;;;;;5047947;28;20233;-89
2023/08/03 14:12:20;;;;;;;0.38;0.32;;;;;;;;;;5048709;28;20241;-89
2023/08/03 14:14:47;;;;;;;0.75;0.55;;;;;;;;;;5061758;28;20206;-85
2023/08/03 14:17:14;;;;;;;0.40;0.40;;;;;;;;;;5040475;28;20234;-84
2023/08/03 14:19:41;;;;;;;0.35;0.35;;;;;;;;;;5060857;28;20656;-85
2023/08/03 14:22:08;;;;;;;0.25;0.20;;;;;;;;;;5056329;28;20716;-85
2023/08/03 14:24:35;;;;;;;1.55;0.43;;;;;;;;;;5058072;28;20676;-86
2023/08/03 14:27:02;;;;;;;0.55;0.30;;;;;;;;;;5053643;28;20241;-87
2023/08/03 14:29:31;;;;;;;0.50;0.50;;;;;;;;;;5042379;28;20227;-89
2023/08/03 14:31:58;;;;;;;1.55;0.52;;;;;;;;;;5050511;28;20257;-87
2023/08/03 14:34:25;;;;;;;1.27;0.68;;;;;;;;;;5042330;28;20272;-91
2023/08/03 14:36:52;;;;;;;0.98;0.60;;;;;;;;;;5050781;28;20233;-87
2023/08/03 14:39:19;;;;;;;0.95;0.50;;;;;;;;;;5050331;28;20218;-88
2023/08/03 14:41:46;;;;;;;1.45;0.68;;;;;;;;;;5047253;28;20233;-85
2023/08/03 14:44:14;;;;;;;0.93;0.60;;;;;;;;;;5039479;28;20202;-84
2023/08/03 14:46:42;;;;;;;1.38;0.60;;;;;;;;;;5048102;28;20309;-84